Skagerak — SGCD — position and weather

sailwx.info

Track history (hours):
 
Tides and Currents Weather Stations Pressure Air Temp Water Temp Dewpoint Dewpoint Depression Visibility Wind Speed Wind Dir Waves Ship Positions

Oceanographic research ship Skagerak (Sweden)

Detailed information on ship capabilities available from University of Delaware's Ocean Information Center.

Last reported at 2017-Mar-27 21:34 UTC. Time now 2017-Mar-27 22:25 UTC.
Position N 57°39' E 011°51'.

Length 38 m; draft 3.8 m.

Type: Dredging. MMSI: 265280000.

Date/timePositionNaut miles runAvg speedWind from/ knotsBaromVisibWave heightAir tempDewpointWater temp
2017-Mar-27 21:34N 57°39' E 011°51'0 0.0
2017-Mar-27 20:33N 57°39' E 011°51'0 0.0
2017-Mar-27 19:33N 57°39' E 011°51'0 0.0
2017-Mar-27 18:33N 57°39' E 011°51'0 0.0
2017-Mar-27 17:33N 57°39' E 011°51'0 0.0
2017-Mar-27 16:33N 57°39' E 011°51'0 0.0
2017-Mar-27 15:33N 57°39' E 011°51'4 4.4
2017-Mar-27 14:33N 57°41' E 011°45'7 7.3
2017-Mar-27 13:33N 57°38' E 011°32'1 1.1
2017-Mar-27 12:34N 57°39' E 011°34'5 4.7
2017-Mar-27 11:34N 57°41' E 011°42'5 4.5
2017-Mar-27 10:33N 57°41' E 011°50'3 2.5
2017-Mar-27 09:30N 57°42' E 011°55'2 2.3
2017-Mar-27 08:33N 57°43' E 011°58'2 1.5
2017-Mar-27 07:33N 57°42' E 011°56'4 4.1
2017-Mar-27 06:33N 57°39' E 011°52'0 0.0
2017-Mar-27 05:33N 57°39' E 011°52'0 0.0
2017-Mar-27 04:33N 57°39' E 011°52'0 0.0
2017-Mar-27 03:33N 57°39' E 011°52'0 0.0
2017-Mar-27 02:33N 57°39' E 011°52'0 0.0
2017-Mar-27 01:31N 57°39' E 011°52'0 0.0
2017-Mar-27 00:34N 57°39' E 011°52'0 0.0
2017-Mar-26 23:34N 57°39' E 011°52'0 0.0
2017-Mar-26 22:33N 57°39' E 011°52'0 0.0
2017-Mar-26 21:34N 57°39' E 011°52'0 0.0
2017-Mar-26 20:33N 57°39' E 011°52'0 0.0
2017-Mar-26 19:33N 57°39' E 011°52'0 0.0
2017-Mar-26 18:33N 57°39' E 011°52'0 0.0
2017-Mar-26 17:33N 57°39' E 011°52'0 0.0
2017-Mar-26 16:34N 57°39' E 011°52'0 0.0
2017-Mar-26 15:33N 57°39' E 011°52'0 0.0
2017-Mar-26 14:33N 57°39' E 011°52'0 0.0
2017-Mar-26 13:12N 57°39' E 011°52'0 0.0
2017-Mar-26 12:34N 57°39' E 011°52'0 0.0
2017-Mar-26 11:33N 57°39' E 011°52'0 0.0
2017-Mar-26 10:33N 57°39' E 011°52'0 0.0
2017-Mar-26 09:33N 57°39' E 011°52'0 0.0
2017-Mar-26 08:33N 57°39' E 011°52'0 0.0
2017-Mar-26 07:34N 57°39' E 011°52'0 0.0
2017-Mar-26 06:33N 57°39' E 011°52'0 0.0
2017-Mar-26 05:33N 57°39' E 011°52'0 0.0
2017-Mar-26 04:33N 57°39' E 011°52'0 0.0
2017-Mar-26 03:33N 57°39' E 011°52'0 0.0
2017-Mar-26 02:33N 57°39' E 011°52'0 0.0
2017-Mar-26 01:33N 57°39' E 011°52'0 0.0
2017-Mar-26 00:33N 57°39' E 011°52'0 0.0
2017-Mar-25 23:34N 57°39' E 011°52'0 0.0
2017-Mar-25 22:33N 57°39' E 011°52'0 0.0
2017-Mar-25 21:33N 57°39' E 011°52'0 0.0
2017-Mar-25 20:33N 57°39' E 011°52'0 0.0
2017-Mar-25 19:33N 57°39' E 011°52'0 0.0
2017-Mar-25 18:34N 57°39' E 011°52'0 0.0
2017-Mar-25 17:34N 57°39' E 011°52'0 0.0
2017-Mar-25 16:25N 57°39' E 011°52'0 0.0
2017-Mar-25 15:34N 57°39' E 011°52'0 0.0
2017-Mar-25 14:34N 57°39' E 011°52'0 0.0
2017-Mar-25 13:14N 57°39' E 011°52'0 0.0
2017-Mar-25 12:34N 57°39' E 011°52'0 0.0
2017-Mar-25 11:34N 57°39' E 011°52'0 0.0
2017-Mar-25 10:33N 57°39' E 011°52'0 0.0
2017-Mar-25 09:34N 57°39' E 011°52'0 0.0
2017-Mar-25 08:34N 57°39' E 011°52'0 0.0
2017-Mar-25 07:34N 57°39' E 011°52'0 0.0
2017-Mar-25 06:34N 57°39' E 011°52'0 0.0
2017-Mar-25 05:33N 57°39' E 011°52'0 0.0
2017-Mar-25 04:34N 57°39' E 011°52'0 0.0
2017-Mar-25 03:34N 57°39' E 011°52'0 0.0
2017-Mar-25 02:34N 57°39' E 011°52'0 0.0
2017-Mar-25 01:34N 57°39' E 011°52'0 0.0
2017-Mar-25 00:34N 57°39' E 011°52'0 0.0
2017-Mar-24 23:34N 57°39' E 011°52'0 0.0
2017-Mar-24 22:34N 57°39' E 011°52'0 0.0
2017-Mar-24 21:34N 57°39' E 011°52'0 0.0
2017-Mar-24 20:34N 57°39' E 011°52'0 0.0
2017-Mar-24 19:34N 57°39' E 011°52'0 0.0
2017-Mar-24 18:33N 57°39' E 011°52'0 0.0
2017-Mar-24 17:33N 57°39' E 011°52'0 0.0
2017-Mar-24 16:33N 57°39' E 011°52'0 0.0
2017-Mar-24 15:33N 57°39' E 011°52'0 0.0
2017-Mar-24 14:33N 57°39' E 011°52'0 0.0
2017-Mar-24 13:24N 57°39' E 011°52'0 0.0
2017-Mar-24 12:33N 57°39' E 011°52'0 0.0
2017-Mar-24 11:33N 57°39' E 011°52'0 0.0
2017-Mar-24 10:33N 57°39' E 011°52'0 0.0
2017-Mar-24 09:33N 57°39' E 011°52'0 0.0
2017-Mar-24 08:33N 57°39' E 011°52'0 0.0
2017-Mar-24 07:33N 57°39' E 011°52'0 0.0
2017-Mar-24 06:33N 57°39' E 011°52'0 0.0
2017-Mar-24 05:33N 57°39' E 011°52'0 0.0
2017-Mar-24 04:33N 57°39' E 011°51'0 0.0
2017-Mar-24 02:33N 57°39' E 011°52'0 0.0
2017-Mar-24 01:33N 57°39' E 011°52'0 0.0
2017-Mar-24 00:33N 57°39' E 011°52'0 0.0
2017-Mar-23 23:28N 57°39' E 011°52'0 0.1
2017-Mar-23 22:33N 57°39' E 011°51'0 0.1
2017-Mar-23 21:33N 57°39' E 011°52'0 0.0
2017-Mar-23 20:33N 57°39' E 011°52'0 0.0
2017-Mar-23 19:33N 57°39' E 011°52'0 0.0
2017-Mar-23 18:33N 57°39' E 011°52'0 0.0
2017-Mar-23 17:33N 57°39' E 011°52'0 0.0
2017-Mar-23 16:33N 57°39' E 011°52'0 0.0
2017-Mar-23 15:33N 57°39' E 011°52'0 0.0
2017-Mar-23 14:34N 57°39' E 011°52'0 0.0
2017-Mar-23 13:21N 57°39' E 011°52'0 0.0
2017-Mar-23 12:33N 57°39' E 011°52'0 0.0
2017-Mar-23 11:33N 57°39' E 011°52'0 0.0
2017-Mar-23 10:33N 57°39' E 011°52'0 0.0
2017-Mar-23 09:33N 57°39' E 011°52'0 0.0
2017-Mar-23 08:33N 57°39' E 011°52'0 0.0
2017-Mar-23 07:33N 57°39' E 011°52'0 0.0
2017-Mar-23 06:33N 57°39' E 011°52'0 0.0
2017-Mar-23 05:33N 57°39' E 011°52'0 0.0
2017-Mar-23 04:33N 57°39' E 011°52'0 0.0
2017-Mar-23 03:33N 57°39' E 011°52'0 0.0
2017-Mar-23 02:33N 57°39' E 011°52'0 0.0
2017-Mar-23 01:33N 57°39' E 011°52'0 0.0
2017-Mar-23 00:34N 57°39' E 011°52'0 0.0
2017-Mar-22 23:34N 57°39' E 011°52'0 0.0
2017-Mar-22 22:33N 57°39' E 011°52'0 0.0
2017-Mar-22 21:33N 57°39' E 011°52'0 0.0
2017-Mar-22 20:34N 57°39' E 011°52'0 0.0
2017-Mar-22 19:33N 57°39' E 011°52'0 0.0
2017-Mar-22 18:33N 57°39' E 011°52'0 0.0
2017-Mar-22 17:33N 57°39' E 011°52'0 0.0
2017-Mar-22 16:33N 57°39' E 011°52'0 0.0
2017-Mar-22 15:33N 57°39' E 011°52'0 0.0
2017-Mar-22 14:33N 57°39' E 011°52'0 0.0
2017-Mar-22 13:26N 57°39' E 011°52'0 0.0
2017-Mar-22 12:33N 57°39' E 011°52'0 0.0
2017-Mar-22 11:33N 57°39' E 011°52'0 0.0
2017-Mar-22 10:33N 57°39' E 011°52'0 0.0
2017-Mar-22 09:34N 57°39' E 011°52'0 0.0
2017-Mar-22 08:33N 57°39' E 011°52'0 0.0
2017-Mar-22 07:33N 57°39' E 011°52'0 0.0
2017-Mar-22 06:33N 57°39' E 011°52'0 0.0
2017-Mar-22 05:33N 57°39' E 011°52'0 0.0
2017-Mar-22 04:33N 57°39' E 011°52'0 0.1
2017-Mar-22 03:34N 57°39' E 011°51'0 0.1
2017-Mar-22 02:33N 57°39' E 011°52'0 0.0
2017-Mar-22 01:33N 57°39' E 011°52'0 0.0
2017-Mar-22 00:33N 57°39' E 011°52'0 0.0
2017-Mar-21 23:33N 57°39' E 011°52'0 0.0
2017-Mar-21 22:33N 57°39' E 011°52'0 0.0
2017-Mar-21 21:34N 57°39' E 011°52'0 0.0
2017-Mar-21 20:34N 57°39' E 011°52'0 0.0
2017-Mar-21 19:34N 57°39' E 011°52'0 0.0
2017-Mar-21 18:33N 57°39' E 011°52'0 0.0
2017-Mar-21 17:33N 57°39' E 011°52'0 0.0
2017-Mar-21 16:16N 57°39' E 011°52'0 0.0
2017-Mar-21 15:33N 57°39' E 011°52'0 0.0
2017-Mar-21 14:33N 57°39' E 011°52'0 0.0
2017-Mar-21 13:34N 57°39' E 011°52'0 0.0
2017-Mar-21 12:33N 57°39' E 011°52'0 0.0
2017-Mar-21 11:33N 57°39' E 011°52'0 0.0
2017-Mar-21 10:33N 57°39' E 011°52'0 0.0
2017-Mar-21 09:33N 57°39' E 011°52'0 0.0
2017-Mar-21 08:33N 57°39' E 011°52'0 0.0
2017-Mar-21 07:33N 57°39' E 011°52'0 0.0
2017-Mar-21 06:33N 57°39' E 011°52'0 0.0
2017-Mar-21 05:33N 57°39' E 011°52'0 0.0
2017-Mar-21 04:33N 57°39' E 011°52'0 0.1
2017-Mar-21 03:33N 57°39' E 011°52'0 0.1
2017-Mar-21 02:33N 57°39' E 011°52'0 0.0
2017-Mar-21 01:33N 57°39' E 011°52'0 0.0
2017-Mar-21 00:34N 57°39' E 011°52'0 0.0
2017-Mar-20 23:33N 57°39' E 011°52'0 0.0
2017-Mar-20 22:14N 57°39' E 011°52'0 0.0
2017-Mar-20 21:34N 57°39' E 011°52'0 0.0
2017-Mar-20 20:33N 57°39' E 011°52'0 0.0
2017-Mar-20 19:34N 57°39' E 011°52'0 0.0
2017-Mar-20 18:33N 57°39' E 011°52'0 0.0
2017-Mar-20 17:33N 57°39' E 011°52'0 0.0
2017-Mar-20 16:33N 57°39' E 011°52'0 0.0
2017-Mar-20 15:33N 57°39' E 011°52'0 0.0
2017-Mar-20 14:34N 57°39' E 011°52'0 0.0
2017-Mar-20 13:34N 57°39' E 011°52'0 0.0
2017-Mar-20 12:33N 57°39' E 011°52'0 0.0
2017-Mar-20 11:33N 57°39' E 011°52'0 0.0
2017-Mar-20 10:33N 57°39' E 011°52'0 0.0
2017-Mar-20 09:33N 57°39' E 011°52'0 0.0
2017-Mar-20 08:33N 57°39' E 011°52'0 0.0
2017-Mar-20 07:33N 57°39' E 011°52'0 0.0
2017-Mar-20 06:33N 57°39' E 011°52'0 0.0
2017-Mar-20 05:33N 57°39' E 011°52'0 0.0
2017-Mar-20 04:33N 57°39' E 011°52'0 0.0
2017-Mar-20 03:34N 57°39' E 011°51'0 0.0
2017-Mar-20 02:33N 57°39' E 011°52'0 0.0
2017-Mar-20 01:33N 57°39' E 011°52'0 0.0
2017-Mar-20 00:33N 57°39' E 011°52'0 0.0
2017-Mar-19 23:33N 57°39' E 011°52'0 0.0
2017-Mar-19 22:33N 57°39' E 011°52'0 0.0
2017-Mar-19 21:33N 57°39' E 011°52'0 0.0
2017-Mar-19 20:33N 57°39' E 011°52'0 0.0
2017-Mar-19 19:33N 57°39' E 011°52'0 0.0
2017-Mar-19 18:33N 57°39' E 011°52'0 0.0
2017-Mar-19 17:33N 57°39' E 011°52'0 0.0
2017-Mar-19 16:33N 57°39' E 011°52'0 0.0
2017-Mar-19 15:34N 57°39' E 011°52'0 0.0
2017-Mar-19 14:33N 57°39' E 011°52'0 0.0
2017-Mar-19 13:33N 57°39' E 011°52'0 0.0
2017-Mar-19 12:33N 57°39' E 011°52'0 0.0
2017-Mar-19 11:33N 57°39' E 011°52'0 0.0
2017-Mar-19 10:33N 57°39' E 011°52'0 0.0
2017-Mar-19 09:34N 57°39' E 011°52'0 0.0
2017-Mar-19 08:33N 57°39' E 011°52'0 0.0
2017-Mar-19 07:33N 57°39' E 011°52'0 0.0
2017-Mar-19 06:33N 57°39' E 011°52'0 0.0
2017-Mar-19 05:33N 57°39' E 011°52'0 0.0
2017-Mar-19 04:33N 57°39' E 011°52'0 0.0
2017-Mar-19 03:34N 57°39' E 011°52'0 0.0
2017-Mar-19 02:33N 57°39' E 011°52'0 0.0
2017-Mar-19 01:34N 57°39' E 011°52'0 0.0
2017-Mar-19 00:34N 57°39' E 011°52'0 0.0
2017-Mar-18 23:33N 57°39' E 011°52'0 0.0
2017-Mar-18 22:25N 57°39' E 011°52'0 0.0
2017-Mar-18 21:33N 57°39' E 011°52'0 0.0
2017-Mar-18 20:34N 57°39' E 011°52'0 0.0
2017-Mar-18 19:33N 57°39' E 011°52'0 0.0
2017-Mar-18 18:33N 57°39' E 011°52'0 0.0
2017-Mar-18 17:33N 57°39' E 011°52'0 0.0
2017-Mar-18 16:33N 57°39' E 011°52'0 0.0
2017-Mar-18 15:33N 57°39' E 011°52'0 0.0
2017-Mar-18 14:33N 57°39' E 011°52'0 0.0
2017-Mar-18 13:33N 57°39' E 011°52'0 0.0
2017-Mar-18 12:33N 57°39' E 011°52'0 0.0
2017-Mar-18 11:33N 57°39' E 011°52'0 0.0
2017-Mar-18 10:33N 57°39' E 011°52'0 0.0
2017-Mar-18 09:33N 57°39' E 011°52'0 0.0
2017-Mar-18 08:33N 57°39' E 011°52'0 0.0
2017-Mar-18 07:33N 57°39' E 011°52'0 0.0
2017-Mar-18 06:33N 57°39' E 011°52'0 0.0
2017-Mar-18 05:34N 57°39' E 011°52'0 0.0
2017-Mar-18 04:33N 57°39' E 011°52'0 0.0
2017-Mar-18 03:25N 57°39' E 011°52'0 0.0
2017-Mar-18 02:25N 57°39' E 011°52'0 0.0
2017-Mar-18 01:33N 57°39' E 011°52'0 0.0
2017-Mar-18 00:33N 57°39' E 011°52'0 0.0
2017-Mar-17 23:33N 57°39' E 011°52'0 0.0
2017-Mar-17 22:27N 57°39' E 011°52'  
Track history (hours):
 
Tides and Currents Weather Stations Pressure Air Temp Water Temp Dewpoint Dewpoint Depression Visibility Wind Speed Wind Dir Waves Ship Positions

Oceanographic research ship Skagerak (Sweden)

Detailed information on ship capabilities available from University of Delaware's Ocean Information Center.

Last reported at 2017-Mar-27 21:34 UTC. Time now 2017-Mar-27 22:25 UTC.
Position N 57°39' E 011°51'.

Length 38 m; draft 3.8 m.

Type: Dredging. MMSI: 265280000.

Date/timePositionNaut miles runAvg speedWind from/ knotsBaromVisibWave heightAir tempDewpointWater temp
2017-Mar-27 21:34N 57°39' E 011°51'0 0.0
2017-Mar-27 20:33N 57°39' E 011°51'0 0.0
2017-Mar-27 19:33N 57°39' E 011°51'0 0.0
2017-Mar-27 18:33N 57°39' E 011°51'0 0.0
2017-Mar-27 17:33N 57°39' E 011°51'0 0.0
2017-Mar-27 16:33N 57°39' E 011°51'0 0.0
2017-Mar-27 15:33N 57°39' E 011°51'4 4.4
2017-Mar-27 14:33N 57°41' E 011°45'7 7.3
2017-Mar-27 13:33N 57°38' E 011°32'1 1.1
2017-Mar-27 12:34N 57°39' E 011°34'5 4.7
2017-Mar-27 11:34N 57°41' E 011°42'5 4.5
2017-Mar-27 10:33N 57°41' E 011°50'3 2.5
2017-Mar-27 09:30N 57°42' E 011°55'2 2.3
2017-Mar-27 08:33N 57°43' E 011°58'2 1.5
2017-Mar-27 07:33N 57°42' E 011°56'4 4.1
2017-Mar-27 06:33N 57°39' E 011°52'0 0.0
2017-Mar-27 05:33N 57°39' E 011°52'0 0.0
2017-Mar-27 04:33N 57°39' E 011°52'0 0.0
2017-Mar-27 03:33N 57°39' E 011°52'0 0.0
2017-Mar-27 02:33N 57°39' E 011°52'0 0.0
2017-Mar-27 01:31N 57°39' E 011°52'0 0.0
2017-Mar-27 00:34N 57°39' E 011°52'0 0.0
2017-Mar-26 23:34N 57°39' E 011°52'0 0.0
2017-Mar-26 22:33N 57°39' E 011°52'0 0.0
2017-Mar-26 21:34N 57°39' E 011°52'0 0.0
2017-Mar-26 20:33N 57°39' E 011°52'0 0.0
2017-Mar-26 19:33N 57°39' E 011°52'0 0.0
2017-Mar-26 18:33N 57°39' E 011°52'0 0.0
2017-Mar-26 17:33N 57°39' E 011°52'0 0.0
2017-Mar-26 16:34N 57°39' E 011°52'0 0.0
2017-Mar-26 15:33N 57°39' E 011°52'0 0.0
2017-Mar-26 14:33N 57°39' E 011°52'0 0.0
2017-Mar-26 13:12N 57°39' E 011°52'0 0.0
2017-Mar-26 12:34N 57°39' E 011°52'0 0.0
2017-Mar-26 11:33N 57°39' E 011°52'0 0.0
2017-Mar-26 10:33N 57°39' E 011°52'0 0.0
2017-Mar-26 09:33N 57°39' E 011°52'0 0.0
2017-Mar-26 08:33N 57°39' E 011°52'0 0.0
2017-Mar-26 07:34N 57°39' E 011°52'0 0.0
2017-Mar-26 06:33N 57°39' E 011°52'0 0.0
2017-Mar-26 05:33N 57°39' E 011°52'0 0.0
2017-Mar-26 04:33N 57°39' E 011°52'0 0.0
2017-Mar-26 03:33N 57°39' E 011°52'0 0.0
2017-Mar-26 02:33N 57°39' E 011°52'0 0.0
2017-Mar-26 01:33N 57°39' E 011°52'0 0.0
2017-Mar-26 00:33N 57°39' E 011°52'0 0.0
2017-Mar-25 23:34N 57°39' E 011°52'0 0.0
2017-Mar-25 22:33N 57°39' E 011°52'0 0.0
2017-Mar-25 21:33N 57°39' E 011°52'0 0.0
2017-Mar-25 20:33N 57°39' E 011°52'0 0.0
2017-Mar-25 19:33N 57°39' E 011°52'0 0.0
2017-Mar-25 18:34N 57°39' E 011°52'0 0.0
2017-Mar-25 17:34N 57°39' E 011°52'0 0.0
2017-Mar-25 16:25N 57°39' E 011°52'0 0.0
2017-Mar-25 15:34N 57°39' E 011°52'0 0.0
2017-Mar-25 14:34N 57°39' E 011°52'0 0.0
2017-Mar-25 13:14N 57°39' E 011°52'0 0.0
2017-Mar-25 12:34N 57°39' E 011°52'0 0.0
2017-Mar-25 11:34N 57°39' E 011°52'0 0.0
2017-Mar-25 10:33N 57°39' E 011°52'0 0.0
2017-Mar-25 09:34N 57°39' E 011°52'0 0.0
2017-Mar-25 08:34N 57°39' E 011°52'0 0.0
2017-Mar-25 07:34N 57°39' E 011°52'0 0.0
2017-Mar-25 06:34N 57°39' E 011°52'0 0.0
2017-Mar-25 05:33N 57°39' E 011°52'0 0.0
2017-Mar-25 04:34N 57°39' E 011°52'0 0.0
2017-Mar-25 03:34N 57°39' E 011°52'0 0.0
2017-Mar-25 02:34N 57°39' E 011°52'0 0.0
2017-Mar-25 01:34N 57°39' E 011°52'0 0.0
2017-Mar-25 00:34N 57°39' E 011°52'0 0.0
2017-Mar-24 23:34N 57°39' E 011°52'0 0.0
2017-Mar-24 22:34N 57°39' E 011°52'0 0.0
2017-Mar-24 21:34N 57°39' E 011°52'0 0.0
2017-Mar-24 20:34N 57°39' E 011°52'0 0.0
2017-Mar-24 19:34N 57°39' E 011°52'0 0.0
2017-Mar-24 18:33N 57°39' E 011°52'0 0.0
2017-Mar-24 17:33N 57°39' E 011°52'0 0.0
2017-Mar-24 16:33N 57°39' E 011°52'0 0.0
2017-Mar-24 15:33N 57°39' E 011°52'0 0.0
2017-Mar-24 14:33N 57°39' E 011°52'0 0.0
2017-Mar-24 13:24N 57°39' E 011°52'0 0.0
2017-Mar-24 12:33N 57°39' E 011°52'0 0.0
2017-Mar-24 11:33N 57°39' E 011°52'0 0.0
2017-Mar-24 10:33N 57°39' E 011°52'0 0.0
2017-Mar-24 09:33N 57°39' E 011°52'0 0.0
2017-Mar-24 08:33N 57°39' E 011°52'0 0.0
2017-Mar-24 07:33N 57°39' E 011°52'0 0.0
2017-Mar-24 06:33N 57°39' E 011°52'0 0.0
2017-Mar-24 05:33N 57°39' E 011°52'0 0.0
2017-Mar-24 04:33N 57°39' E 011°51'0 0.0
2017-Mar-24 02:33N 57°39' E 011°52'0 0.0
2017-Mar-24 01:33N 57°39' E 011°52'0 0.0
2017-Mar-24 00:33N 57°39' E 011°52'0 0.0
2017-Mar-23 23:28N 57°39' E 011°52'0 0.1
2017-Mar-23 22:33N 57°39' E 011°51'0 0.1
2017-Mar-23 21:33N 57°39' E 011°52'0 0.0
2017-Mar-23 20:33N 57°39' E 011°52'0 0.0
2017-Mar-23 19:33N 57°39' E 011°52'0 0.0
2017-Mar-23 18:33N 57°39' E 011°52'0 0.0
2017-Mar-23 17:33N 57°39' E 011°52'0 0.0
2017-Mar-23 16:33N 57°39' E 011°52'0 0.0
2017-Mar-23 15:33N 57°39' E 011°52'0 0.0
2017-Mar-23 14:34N 57°39' E 011°52'0 0.0
2017-Mar-23 13:21N 57°39' E 011°52'0 0.0
2017-Mar-23 12:33N 57°39' E 011°52'0 0.0
2017-Mar-23 11:33N 57°39' E 011°52'0 0.0
2017-Mar-23 10:33N 57°39' E 011°52'0 0.0
2017-Mar-23 09:33N 57°39' E 011°52'0 0.0
2017-Mar-23 08:33N 57°39' E 011°52'0 0.0
2017-Mar-23 07:33N 57°39' E 011°52'0 0.0
2017-Mar-23 06:33N 57°39' E 011°52'0 0.0
2017-Mar-23 05:33N 57°39' E 011°52'0 0.0
2017-Mar-23 04:33N 57°39' E 011°52'0 0.0
2017-Mar-23 03:33N 57°39' E 011°52'0 0.0
2017-Mar-23 02:33N 57°39' E 011°52'0 0.0
2017-Mar-23 01:33N 57°39' E 011°52'0 0.0
2017-Mar-23 00:34N 57°39' E 011°52'0 0.0
2017-Mar-22 23:34N 57°39' E 011°52'0 0.0
2017-Mar-22 22:33N 57°39' E 011°52'0 0.0
2017-Mar-22 21:33N 57°39' E 011°52'0 0.0
2017-Mar-22 20:34N 57°39' E 011°52'0 0.0
2017-Mar-22 19:33N 57°39' E 011°52'0 0.0
2017-Mar-22 18:33N 57°39' E 011°52'0 0.0
2017-Mar-22 17:33N 57°39' E 011°52'0 0.0
2017-Mar-22 16:33N 57°39' E 011°52'0 0.0
2017-Mar-22 15:33N 57°39' E 011°52'0 0.0
2017-Mar-22 14:33N 57°39' E 011°52'0 0.0
2017-Mar-22 13:26N 57°39' E 011°52'0 0.0
2017-Mar-22 12:33N 57°39' E 011°52'0 0.0
2017-Mar-22 11:33N 57°39' E 011°52'0 0.0
2017-Mar-22 10:33N 57°39' E 011°52'0 0.0
2017-Mar-22 09:34N 57°39' E 011°52'0 0.0
2017-Mar-22 08:33N 57°39' E 011°52'0 0.0
2017-Mar-22 07:33N 57°39' E 011°52'0 0.0
2017-Mar-22 06:33N 57°39' E 011°52'0 0.0
2017-Mar-22 05:33N 57°39' E 011°52'0 0.0
2017-Mar-22 04:33N 57°39' E 011°52'0 0.1
2017-Mar-22 03:34N 57°39' E 011°51'0 0.1
2017-Mar-22 02:33N 57°39' E 011°52'0 0.0
2017-Mar-22 01:33N 57°39' E 011°52'0 0.0
2017-Mar-22 00:33N 57°39' E 011°52'0 0.0
2017-Mar-21 23:33N 57°39' E 011°52'0 0.0
2017-Mar-21 22:33N 57°39' E 011°52'0 0.0
2017-Mar-21 21:34N 57°39' E 011°52'0 0.0
2017-Mar-21 20:34N 57°39' E 011°52'0 0.0
2017-Mar-21 19:34N 57°39' E 011°52'0 0.0
2017-Mar-21 18:33N 57°39' E 011°52'0 0.0
2017-Mar-21 17:33N 57°39' E 011°52'0 0.0
2017-Mar-21 16:16N 57°39' E 011°52'0 0.0
2017-Mar-21 15:33N 57°39' E 011°52'0 0.0
2017-Mar-21 14:33N 57°39' E 011°52'0 0.0
2017-Mar-21 13:34N 57°39' E 011°52'0 0.0
2017-Mar-21 12:33N 57°39' E 011°52'0 0.0
2017-Mar-21 11:33N 57°39' E 011°52'0 0.0
2017-Mar-21 10:33N 57°39' E 011°52'0 0.0
2017-Mar-21 09:33N 57°39' E 011°52'0 0.0
2017-Mar-21 08:33N 57°39' E 011°52'0 0.0
2017-Mar-21 07:33N 57°39' E 011°52'0 0.0
2017-Mar-21 06:33N 57°39' E 011°52'0 0.0
2017-Mar-21 05:33N 57°39' E 011°52'0 0.0
2017-Mar-21 04:33N 57°39' E 011°52'0 0.1
2017-Mar-21 03:33N 57°39' E 011°52'0 0.1
2017-Mar-21 02:33N 57°39' E 011°52'0 0.0
2017-Mar-21 01:33N 57°39' E 011°52'0 0.0
2017-Mar-21 00:34N 57°39' E 011°52'0 0.0
2017-Mar-20 23:33N 57°39' E 011°52'0 0.0
2017-Mar-20 22:14N 57°39' E 011°52'0 0.0
2017-Mar-20 21:34N 57°39' E 011°52'0 0.0
2017-Mar-20 20:33N 57°39' E 011°52'0 0.0
2017-Mar-20 19:34N 57°39' E 011°52'0 0.0
2017-Mar-20 18:33N 57°39' E 011°52'0 0.0
2017-Mar-20 17:33N 57°39' E 011°52'0 0.0
2017-Mar-20 16:33N 57°39' E 011°52'0 0.0
2017-Mar-20 15:33N 57°39' E 011°52'0 0.0
2017-Mar-20 14:34N 57°39' E 011°52'0 0.0
2017-Mar-20 13:34N 57°39' E 011°52'0 0.0
2017-Mar-20 12:33N 57°39' E 011°52'0 0.0
2017-Mar-20 11:33N 57°39' E 011°52'0 0.0
2017-Mar-20 10:33N 57°39' E 011°52'0 0.0
2017-Mar-20 09:33N 57°39' E 011°52'0 0.0
2017-Mar-20 08:33N 57°39' E 011°52'0 0.0
2017-Mar-20 07:33N 57°39' E 011°52'0 0.0
2017-Mar-20 06:33N 57°39' E 011°52'0 0.0
2017-Mar-20 05:33N 57°39' E 011°52'0 0.0
2017-Mar-20 04:33N 57°39' E 011°52'0 0.0
2017-Mar-20 03:34N 57°39' E 011°51'0 0.0
2017-Mar-20 02:33N 57°39' E 011°52'0 0.0
2017-Mar-20 01:33N 57°39' E 011°52'0 0.0
2017-Mar-20 00:33N 57°39' E 011°52'0 0.0
2017-Mar-19 23:33N 57°39' E 011°52'0 0.0
2017-Mar-19 22:33N 57°39' E 011°52'0 0.0
2017-Mar-19 21:33N 57°39' E 011°52'0 0.0
2017-Mar-19 20:33N 57°39' E 011°52'0 0.0
2017-Mar-19 19:33N 57°39' E 011°52'0 0.0
2017-Mar-19 18:33N 57°39' E 011°52'0 0.0
2017-Mar-19 17:33N 57°39' E 011°52'0 0.0
2017-Mar-19 16:33N 57°39' E 011°52'0 0.0
2017-Mar-19 15:34N 57°39' E 011°52'0 0.0
2017-Mar-19 14:33N 57°39' E 011°52'0 0.0
2017-Mar-19 13:33N 57°39' E 011°52'0 0.0
2017-Mar-19 12:33N 57°39' E 011°52'0 0.0
2017-Mar-19 11:33N 57°39' E 011°52'0 0.0
2017-Mar-19 10:33N 57°39' E 011°52'0 0.0
2017-Mar-19 09:34N 57°39' E 011°52'0 0.0
2017-Mar-19 08:33N 57°39' E 011°52'0 0.0
2017-Mar-19 07:33N 57°39' E 011°52'0 0.0
2017-Mar-19 06:33N 57°39' E 011°52'0 0.0
2017-Mar-19 05:33N 57°39' E 011°52'0 0.0
2017-Mar-19 04:33N 57°39' E 011°52'0 0.0
2017-Mar-19 03:34N 57°39' E 011°52'0 0.0
2017-Mar-19 02:33N 57°39' E 011°52'0 0.0
2017-Mar-19 01:34N 57°39' E 011°52'0 0.0
2017-Mar-19 00:34N 57°39' E 011°52'0 0.0
2017-Mar-18 23:33N 57°39' E 011°52'0 0.0
2017-Mar-18 22:25N 57°39' E 011°52'0 0.0
2017-Mar-18 21:33N 57°39' E 011°52'0 0.0
2017-Mar-18 20:34N 57°39' E 011°52'0 0.0
2017-Mar-18 19:33N 57°39' E 011°52'0 0.0
2017-Mar-18 18:33N 57°39' E 011°52'0 0.0
2017-Mar-18 17:33N 57°39' E 011°52'0 0.0
2017-Mar-18 16:33N 57°39' E 011°52'0 0.0
2017-Mar-18 15:33N 57°39' E 011°52'0 0.0
2017-Mar-18 14:33N 57°39' E 011°52'0 0.0
2017-Mar-18 13:33N 57°39' E 011°52'0 0.0
2017-Mar-18 12:33N 57°39' E 011°52'0 0.0
2017-Mar-18 11:33N 57°39' E 011°52'0 0.0
2017-Mar-18 10:33N 57°39' E 011°52'0 0.0
2017-Mar-18 09:33N 57°39' E 011°52'0 0.0
2017-Mar-18 08:33N 57°39' E 011°52'0 0.0
2017-Mar-18 07:33N 57°39' E 011°52'0 0.0
2017-Mar-18 06:33N 57°39' E 011°52'0 0.0
2017-Mar-18 05:34N 57°39' E 011°52'0 0.0
2017-Mar-18 04:33N 57°39' E 011°52'0 0.0
2017-Mar-18 03:25N 57°39' E 011°52'0 0.0
2017-Mar-18 02:25N 57°39' E 011°52'0 0.0
2017-Mar-18 01:33N 57°39' E 011°52'0 0.0
2017-Mar-18 00:33N 57°39' E 011°52'0 0.0
2017-Mar-17 23:33N 57°39' E 011°52'0 0.0
2017-Mar-17 22:27N 57°39' E 011°52'  

Dump ship's entire track history